Time;durP1;ratioP1;P1;durP2;ratioP2;P2;SDS_P1;SDS_P2;PMS_P1;PMS_P2;Temp;Humidity;BMP_temperature;BMP_pressure;BME280_temperature;BME280_humidity;BME280_pressure;Samples;Min_cycle;Max_cycle;Signal;HPM_P1;HPM_P2
2023/08/01 00:01:50;;;;;;;0.00;0.00;;;;;;;16.44;75.41;99477.44;7345118;19;20024;-58
2023/08/01 00:04:16;;;;;;;0.05;0.05;;;;;;;16.39;74.93;99471.63;7352415;19;20862;-57
2023/08/01 00:06:41;;;;;;;0.10;0.10;;;;;;;16.39;75.14;99479.53;7343197;19;20026;-58
2023/08/01 00:09:07;;;;;;;0.10;0.10;;;;;;;16.33;75.33;99499.22;7339595;19;20010;-57
2023/08/01 00:11:32;;;;;;;0.00;0.00;;;;;;;16.28;75.44;99480.25;7345462;19;20023;-57
2023/08/01 00:13:58;;;;;;;0.10;0.10;;;;;;;16.23;75.40;99479.69;7350610;19;20030;-56
2023/08/01 00:16:24;;;;;;;0.10;0.10;;;;;;;16.20;75.35;99480.72;7350100;19;20054;-56
2023/08/01 00:18:49;;;;;;;0.10;0.10;;;;;;;16.18;75.42;99489.69;7345409;19;20891;-57
2023/08/01 00:21:15;;;;;;;0.00;0.00;;;;;;;16.14;75.34;99494.31;7349793;19;20023;-56
2023/08/01 00:23:40;;;;;;;0.08;0.08;;;;;;;16.11;75.36;99494.47;7351493;19;20006;-58
2023/08/01 00:26:06;;;;;;;0.00;0.00;;;;;;;16.12;76.31;99490.94;7347128;19;20042;-55
2023/08/01 00:28:32;;;;;;;0.00;0.00;;;;;;;16.08;75.48;99499.97;7348347;19;20090;-56
2023/08/01 00:31:10;;;;;;;0.10;0.10;;;;;;;16.10;76.08;99492.81;7347559;19;20697;-57
2023/08/01 00:33:36;;;;;;;0.10;0.10;;;;;;;16.03;75.91;99492.38;7349793;19;20014;-57
2023/08/01 00:36:02;;;;;;;0.10;0.10;;;;;;;16.05;75.95;99501.00;7349080;19;20642;-56
2023/08/01 00:38:28;;;;;;;0.00;0.00;;;;;;;16.05;75.82;99494.88;7350279;19;20103;-56
2023/08/01 00:40:53;;;;;;;0.10;0.10;;;;;;;15.93;75.21;99479.88;7348403;19;20648;-57
2023/08/01 00:43:19;;;;;;;0.00;0.00;;;;;;;16.01;76.01;99498.66;7347104;19;20003;-57
2023/08/01 00:45:46;;;;;;;0.08;0.08;;;;;;;15.99;75.42;99496.13;7342822;19;20881;-57
2023/08/01 00:48:11;;;;;;;0.00;0.00;;;;;;;15.80;75.57;99472.75;7347354;19;20117;-55
2023/08/01 00:50:38;;;;;;;0.03;0.03;;;;;;;15.85;75.65;99477.72;7349454;19;20117;-58
2023/08/01 00:53:04;;;;;;;0.00;0.00;;;;;;;15.89;75.61;99496.81;7347153;19;20011;-57
2023/08/01 00:55:32;;;;;;;0.10;0.10;;;;;;;15.93;75.53;99508.84;7348188;19;20834;-57
2023/08/01 00:57:57;;;;;;;0.10;0.10;;;;;;;15.92;75.98;99509.81;7348994;19;20018;-56
2023/08/01 01:00:23;;;;;;;0.10;0.10;;;;;;;15.91;76.07;99510.72;7345830;19;20500;-57
2023/08/01 01:02:48;;;;;;;0.10;0.10;;;;;;;15.91;76.42;99514.19;7350320;19;20015;-57
2023/08/01 01:05:15;;;;;;;0.08;0.08;;;;;;;15.88;76.26;99517.03;7343384;19;20014;-57
2023/08/01 01:07:41;;;;;;;0.00;0.00;;;;;;;15.92;76.46;99520.34;7348988;19;20018;-57
2023/08/01 01:10:07;;;;;;;0.00;0.00;;;;;;;15.93;76.10;99516.75;7345886;19;21285;-55
2023/08/01 01:12:32;;;;;;;0.00;0.00;;;;;;;15.94;76.74;99524.53;7348765;19;20006;-58
2023/08/01 01:14:57;;;;;;;0.10;0.10;;;;;;;15.95;76.79;99520.97;7344188;19;20009;-57
2023/08/01 01:17:23;;;;;;;0.10;0.10;;;;;;;15.98;76.53;99525.19;7348587;19;20010;-58
2023/08/01 01:19:48;;;;;;;0.10;0.10;;;;;;;16.00;76.53;99525.94;7346366;19;20466;-57
2023/08/01 01:22:16;;;;;;;0.10;0.10;;;;;;;16.01;76.74;99517.94;7349752;19;20019;-56
2023/08/01 01:24:42;;;;;;;0.00;0.00;;;;;;;16.01;76.54;99506.56;7355269;19;20881;-57
2023/08/01 01:27:09;;;;;;;0.10;0.10;;;;;;;16.05;76.57;99510.69;7353004;19;20023;-58
2023/08/01 01:29:35;;;;;;;0.10;0.10;;;;;;;16.05;77.11;99502.78;7355927;19;20030;-55
2023/08/01 01:32:02;;;;;;;0.10;0.10;;;;;;;16.07;76.97;99499.13;7354249;19;20030;-58
2023/08/01 01:34:28;;;;;;;0.10;0.10;;;;;;;16.09;77.67;99497.22;7353810;19;20026;-57
2023/08/01 01:36:53;;;;;;;0.00;0.00;;;;;;;15.83;76.64;99454.16;7356246;19;20847;-55
2023/08/01 01:39:18;;;;;;;0.00;0.00;;;;;;;16.10;76.94;99492.81;7351139;19;20026;-55
2023/08/01 01:41:44;;;;;;;0.10;0.10;;;;;;;16.10;76.88;99495.44;7351444;19;20019;-57
2023/08/01 01:44:09;;;;;;;0.00;0.00;;;;;;;16.10;76.79;99490.16;7346919;19;20093;-56
2023/08/01 01:46:35;;;;;;;0.10;0.10;;;;;;;16.08;76.15;99490.28;7357458;19;20078;-57
2023/08/01 01:49:00;;;;;;;0.00;0.00;;;;;;;16.02;76.35;99480.16;7347114;19;20011;-56
2023/08/01 01:51:27;;;;;;;0.00;0.00;;;;;;;16.09;76.46;99488.50;7353177;19;20017;-57
2023/08/01 01:53:52;;;;;;;0.00;0.00;;;;;;;16.07;76.24;99482.50;7355833;19;20006;-57
2023/08/01 01:56:18;;;;;;;0.08;0.08;;;;;;;16.06;76.54;99486.88;7352580;19;20036;-57
2023/08/01 01:58:43;;;;;;;0.08;0.08;;;;;;;16.03;76.30;99486.25;7350987;19;20014;-56
2023/08/01 02:01:09;;;;;;;0.10;0.10;;;;;;;16.02;76.08;99479.31;7351618;19;20754;-57
2023/08/01 02:03:35;;;;;;;0.10;0.10;;;;;;;16.02;76.34;99480.16;7357438;19;20014;-56
2023/08/01 02:06:03;;;;;;;0.10;0.10;;;;;;;15.98;76.23;99477.81;7355052;19;20897;-56
2023/08/01 02:08:28;;;;;;;0.10;0.10;;;;;;;15.94;75.55;99476.31;7353023;19;20014;-57
2023/08/01 02:10:55;;;;;;;0.10;0.10;;;;;;;15.93;75.54;99486.00;7359349;19;20025;-58
2023/08/01 02:13:20;;;;;;;0.00;0.00;;;;;;;15.90;75.25;99485.34;7357665;19;20030;-56
2023/08/01 02:15:45;;;;;;;0.10;0.10;;;;;;;15.85;75.53;99469.84;7359622;19;20018;-57
2023/08/01 02:18:11;;;;;;;0.00;0.00;;;;;;;15.82;75.73;99473.53;7359261;19;20572;-56
2023/08/01 02:20:37;;;;;;;0.00;0.00;;;;;;;15.72;75.23;99461.91;7357080;19;20766;-58
2023/08/01 02:23:03;;;;;;;0.10;0.10;;;;;;;15.74;75.31;99481.06;7357082;19;20035;-53
2023/08/01 02:25:28;;;;;;;0.03;0.03;;;;;;;15.71;75.60;99491.78;7359997;19;20106;-57
2023/08/01 02:27:53;;;;;;;0.10;0.10;;;;;;;15.67;75.20;99492.94;7358460;19;20478;-57
2023/08/01 02:30:19;;;;;;;0.05;0.05;;;;;;;15.65;75.37;99494.78;7358546;19;20025;-57
2023/08/01 02:32:44;;;;;;;0.10;0.10;;;;;;;15.56;75.46;99482.16;7356424;19;20395;-56
2023/08/01 02:35:10;;;;;;;0.10;0.10;;;;;;;15.58;75.62;99496.94;7357017;19;20011;-58
2023/08/01 02:37:35;;;;;;;0.10;0.10;;;;;;;15.56;75.63;99493.56;7358087;19;21775;-56
2023/08/01 02:40:07;;;;;;;0.10;0.10;;;;;;;15.46;75.58;99484.56;7357476;19;20475;-54
2023/08/01 02:42:33;;;;;;;0.10;0.10;;;;;;;15.49;75.59;99491.41;7348806;19;20029;-57
2023/08/01 02:44:58;;;;;;;0.10;0.10;;;;;;;15.47;75.34;99493.28;7356617;19;20777;-56
2023/08/01 02:47:24;;;;;;;0.10;0.10;;;;;;;15.44;75.13;99498.72;7354913;19;20038;-57
2023/08/01 02:49:49;;;;;;;0.00;0.00;;;;;;;15.36;75.25;99485.19;7356565;19;20006;-57
2023/08/01 02:52:15;;;;;;;0.00;0.00;;;;;;;15.38;75.64;99494.69;7351098;19;20018;-57
2023/08/01 02:54:40;;;;;;;0.05;0.05;;;;;;;15.35;75.49;99486.97;7353038;19;20014;-58
2023/08/01 02:57:06;;;;;;;0.00;0.00;;;;;;;15.31;75.15;99494.25;7354687;19;20865;-55
2023/08/01 02:59:32;;;;;;;0.05;0.05;;;;;;;15.30;75.29;99492.53;7353813;19;20045;-56
2023/08/01 03:01:59;;;;;;;0.10;0.10;;;;;;;15.26;75.62;99505.97;7357283;19;20025;-57
2023/08/01 03:04:24;;;;;;;0.00;0.00;;;;;;;15.24;75.79;99506.06;7357092;19;20470;-56
2023/08/01 03:06:50;;;;;;;0.00;0.00;;;;;;;15.22;75.96;99500.06;7354234;19;20026;-57
2023/08/01 03:09:15;;;;;;;0.00;0.00;;;;;;;15.19;75.94;99500.22;7353258;19;20046;-57
2023/08/01 03:11:41;;;;;;;0.10;0.10;;;;;;;15.15;75.73;99503.97;7357151;19;20050;-56
2023/08/01 03:14:06;;;;;;;0.00;0.00;;;;;;;15.20;76.09;99511.59;7356199;19;20038;-57
2023/08/01 03:16:32;;;;;;;0.00;0.00;;;;;;;15.18;76.29;99509.06;7358260;19;20010;-58
2023/08/01 03:19:00;;;;;;;0.00;0.00;;;;;;;15.16;75.79;99500.44;7347749;19;20003;-57
2023/08/01 03:21:26;;;;;;;0.00;0.00;;;;;;;15.09;76.00;99491.22;7344422;19;20010;-57
2023/08/01 03:23:52;;;;;;;0.10;0.10;;;;;;;15.13;75.80;99499.75;7357454;19;20053;-56
2023/08/01 03:26:18;;;;;;;0.10;0.10;;;;;;;15.12;75.94;99504.19;7358989;19;20502;-56
2023/08/01 03:28:43;;;;;;;0.03;0.03;;;;;;;15.11;75.82;99510.38;7359175;19;20033;-57
2023/08/01 03:31:09;;;;;;;0.10;0.10;;;;;;;15.09;75.99;99504.34;7355350;19;20014;-56
2023/08/01 03:33:34;;;;;;;0.00;0.00;;;;;;;15.08;76.00;99501.84;7355237;19;20074;-58
2023/08/01 03:36:00;;;;;;;0.10;0.10;;;;;;;15.06;75.67;99491.41;7356784;19;20018;-56
2023/08/01 03:38:25;;;;;;;0.10;0.10;;;;;;;15.05;75.90;99493.19;7357376;19;20010;-57
2023/08/01 03:40:51;;;;;;;0.00;0.00;;;;;;;15.03;76.23;99494.22;7352159;19;20018;-56
2023/08/01 03:43:16;;;;;;;0.10;0.10;;;;;;;15.05;76.35;99497.59;7356657;19;20018;-58
2023/08/01 03:45:41;;;;;;;0.00;0.00;;;;;;;15.05;76.48;99489.69;7351786;19;20025;-57
2023/08/01 03:48:07;;;;;;;0.10;0.10;;;;;;;15.04;76.20;99483.59;7355060;19;20010;-57
2023/08/01 03:50:32;;;;;;;0.00;0.00;;;;;;;15.03;76.50;99484.53;7352294;19;20045;-57
2023/08/01 03:52:58;;;;;;;0.10;0.10;;;;;;;15.02;76.28;99476.75;7358141;19;20011;-56
2023/08/01 03:55:23;;;;;;;0.00;0.00;;;;;;;15.05;76.39;99487.06;7357248;19;20429;-57
2023/08/01 03:57:48;;;;;;;0.10;0.10;;;;;;;15.02;76.43;99477.59;7356826;19;20081;-57
2023/08/01 04:00:14;;;;;;;0.00;0.00;;;;;;;15.05;76.56;99497.59;7355650;19;20059;-56
2023/08/01 04:02:42;;;;;;;0.10;0.10;;;;;;;15.10;76.87;99506.03;7357776;19;20025;-55
2023/08/01 04:05:08;;;;;;;0.10;0.10;;;;;;;15.08;76.74;99504.47;7356598;19;20014;-56
2023/08/01 04:07:35;;;;;;;0.10;0.10;;;;;;;15.10;77.04;99506.03;7357005;19;20022;-56
2023/08/01 04:10:01;;;;;;;0.10;0.10;;;;;;;15.11;76.83;99507.75;7354529;19;20026;-58
2023/08/01 04:12:27;;;;;;;0.00;0.00;;;;;;;15.13;77.14;99499.75;7357070;19;20872;-56
2023/08/01 04:14:52;;;;;;;0.10;0.10;;;;;;;15.10;77.09;99498.16;7357634;19;20336;-58
2023/08/01 04:17:18;;;;;;;0.10;0.10;;;;;;;15.14;77.11;99512.81;7355886;19;20013;-55
2023/08/01 04:19:43;;;;;;;0.10;0.10;;;;;;;15.12;77.07;99504.19;7354939;19;20010;-57
2023/08/01 04:22:09;;;;;;;0.00;0.00;;;;;;;15.15;76.82;99509.25;7356279;19;20014;-57
2023/08/01 04:24:34;;;;;;;0.00;0.00;;;;;;;15.16;76.63;99513.59;7356660;19;20010;-57
2023/08/01 04:26:59;;;;;;;0.10;0.10;;;;;;;15.16;76.50;99518.00;7331591;19;20017;-54
2023/08/01 04:29:25;;;;;;;0.08;0.08;;;;;;;15.15;76.28;99525.00;7353985;19;20050;-57
2023/08/01 04:31:50;;;;;;;0.10;0.10;;;;;;;15.12;76.49;99525.22;7355995;19;20588;-57
2023/08/01 04:34:16;;;;;;;0.00;0.00;;;;;;;15.02;76.57;99518.81;7354715;19;20584;-57
2023/08/01 04:36:41;;;;;;;0.10;0.10;;;;;;;15.08;76.32;99523.72;7356549;19;20023;-57
2023/08/01 04:39:06;;;;;;;0.00;0.00;;;;;;;15.07;76.64;99526.44;7354895;19;20011;-58
2023/08/01 04:41:32;;;;;;;0.10;0.10;;;;;;;15.05;76.20;99534.41;7352400;19;20015;-55
2023/08/01 04:43:57;;;;;;;0.00;0.00;;;;;;;15.01;76.19;99532.91;7354559;19;20023;-56
2023/08/01 04:46:23;;;;;;;0.03;0.03;;;;;;;15.00;76.30;99520.69;7354562;19;20030;-55
2023/08/01 04:48:48;;;;;;;0.10;0.10;;;;;;;14.95;76.50;99520.97;7353478;19;20030;-57
2023/08/01 04:51:13;;;;;;;0.05;0.05;;;;;;;14.96;76.47;99529.72;7354825;19;20067;-56
2023/08/01 04:53:39;;;;;;;0.05;0.05;;;;;;;14.93;76.45;99529.88;7353328;19;20028;-57
2023/08/01 04:56:05;;;;;;;0.00;0.00;;;;;;;14.93;76.21;99535.13;7356677;19;20019;-56
2023/08/01 04:58:30;;;;;;;0.10;0.10;;;;;;;14.91;76.25;99539.66;7360839;19;20078;-57
2023/08/01 05:00:55;;;;;;;0.00;0.00;;;;;;;14.89;76.49;99538.88;7362027;19;20018;-57
2023/08/01 05:03:21;;;;;;;0.10;0.10;;;;;;;14.87;76.65;99543.41;7363145;19;20010;-56
2023/08/01 05:05:46;;;;;;;0.10;0.10;;;;;;;14.88;77.07;99547.72;7355516;19;20019;-57
2023/08/01 05:08:12;;;;;;;0.00;0.00;;;;;;;14.79;77.11;99539.41;7361862;19;20018;-57
2023/08/01 05:10:37;;;;;;;0.10;0.10;;;;;;;14.89;77.19;99552.88;7361619;19;20465;-55
2023/08/01 05:13:02;;;;;;;0.10;0.10;;;;;;;14.93;77.48;99556.16;7354472;19;20010;-56
2023/08/01 05:15:28;;;;;;;0.10;0.10;;;;;;;14.96;77.84;99554.22;7361994;19;20018;-54
2023/08/01 05:17:54;;;;;;;0.10;0.10;;;;;;;14.99;77.88;99556.63;7361352;19;20014;-57
2023/08/01 05:20:19;;;;;;;0.05;0.05;;;;;;;15.00;77.81;99553.09;7359615;19;20093;-57
2023/08/01 05:22:45;;;;;;;0.10;0.10;;;;;;;15.02;77.97;99560.88;7359485;19;20642;-56
2023/08/01 05:25:10;;;;;;;0.10;0.10;;;;;;;15.08;77.91;99555.25;7356888;19;20027;-55
2023/08/01 05:27:35;;;;;;;0.08;0.08;;;;;;;15.12;77.83;99562.03;7362267;19;20010;-57
2023/08/01 05:30:01;;;;;;;0.10;0.10;;;;;;;15.15;78.12;99561.84;7360342;19;20537;-56
2023/08/01 05:32:26;;;;;;;0.00;0.00;;;;;;;15.19;77.91;99563.34;7361301;19;20014;-56
2023/08/01 05:34:52;;;;;;;0.10;0.10;;;;;;;15.22;78.27;99567.59;7360761;19;20014;-57
2023/08/01 05:37:17;;;;;;;0.10;0.10;;;;;;;15.26;78.15;99558.59;7354537;19;20023;-57
2023/08/01 05:39:42;;;;;;;0.10;0.10;;;;;;;15.30;78.06;99565.31;7362041;19;20022;-57
2023/08/01 05:42:09;;;;;;;0.10;0.10;;;;;;;15.34;77.70;99566.00;7357403;19;20025;-56
2023/08/01 05:44:34;;;;;;;0.10;0.10;;;;;;;15.27;78.23;99549.75;7357176;19;20085;-56
2023/08/01 05:47:00;;;;;;;0.08;0.08;;;;;;;15.40;78.21;99565.63;7355323;19;20174;-57
2023/08/01 05:49:25;;;;;;;0.00;0.00;;;;;;;15.43;78.20;99566.28;7361783;19;20006;-57
2023/08/01 05:51:51;;;;;;;0.10;0.10;;;;;;;15.47;77.91;99559.06;7357682;19;20479;-56
2023/08/01 05:54:16;;;;;;;0.10;0.10;;;;;;;15.49;77.83;99560.66;7361531;19;20636;-57
2023/08/01 05:56:42;;;;;;;0.03;0.03;;;;;;;15.49;77.85;99547.50;7357967;19;20003;-56
2023/08/01 05:59:07;;;;;;;0.10;0.10;;;;;;;15.55;77.65;99548.91;7356069;19;20453;-56
2023/08/01 06:01:32;;;;;;;0.10;0.10;;;;;;;15.51;77.40;99543.00;7357627;19;20754;-57
2023/08/01 06:03:58;;;;;;;0.00;0.00;;;;;;;15.58;77.83;99548.72;7358490;19;20010;-54
2023/08/01 06:06:23;;;;;;;0.10;0.10;;;;;;;15.62;77.50;99544.97;7358943;19;20014;-56
2023/08/01 06:08:49;;;;;;;0.10;0.10;;;;;;;15.63;77.32;99541.41;7358502;19;20022;-56
2023/08/01 06:11:15;;;;;;;0.05;0.05;;;;;;;15.65;78.00;99529.00;7350865;19;20014;-56
2023/08/01 06:13:40;;;;;;;0.10;0.10;;;;;;;15.67;77.23;99542.94;7357105;19;20010;-56
2023/08/01 06:16:05;;;;;;;0.10;0.10;;;;;;;15.72;77.88;99535.59;7354508;19;20070;-57
2023/08/01 06:18:31;;;;;;;0.03;0.03;;;;;;;15.73;77.46;99526.75;7359740;19;20014;-56
2023/08/01 06:20:57;;;;;;;0.10;0.10;;;;;;;15.75;77.47;99535.38;7356908;19;20741;-57
2023/08/01 06:23:22;;;;;;;0.10;0.10;;;;;;;15.76;77.55;99537.09;7354981;19;20038;-56
2023/08/01 06:25:47;;;;;;;0.10;0.10;;;;;;;15.82;77.34;99547.22;7357201;19;20097;-55
2023/08/01 06:28:13;;;;;;;0.10;0.10;;;;;;;15.83;77.81;99538.38;7353150;19;20840;-57
2023/08/01 06:30:38;;;;;;;0.10;0.10;;;;;;;15.88;77.80;99539.91;7359082;19;20022;-56
2023/08/01 06:33:04;;;;;;;0.10;0.10;;;;;;;15.82;77.07;99536.69;7355657;19;20010;-57
2023/08/01 06:35:29;;;;;;;0.10;0.10;;;;;;;15.94;77.32;99552.66;7357050;19;20073;-56
2023/08/01 06:37:54;;;;;;;0.10;0.10;;;;;;;15.96;77.35;99551.59;7357747;19;20006;-57
2023/08/01 06:40:20;;;;;;;0.10;0.10;;;;;;;15.98;77.16;99552.38;7358583;19;20346;-56
2023/08/01 06:42:45;;;;;;;0.00;0.00;;;;;;;15.98;77.39;99543.63;7354805;19;20040;-56
2023/08/01 06:45:11;;;;;;;0.10;0.10;;;;;;;16.05;77.55;99553.66;7358367;19;20048;-58
2023/08/01 06:47:36;;;;;;;0.10;0.10;;;;;;;16.05;77.30;99547.56;7355043;19;20014;-58
2023/08/01 06:50:02;;;;;;;0.03;0.03;;;;;;;16.08;77.28;99542.09;7356806;19;20113;-55
2023/08/01 06:52:27;;;;;;;0.10;0.10;;;;;;;16.10;76.92;99550.75;7357154;19;20017;-55
2023/08/01 06:54:53;;;;;;;0.10;0.10;;;;;;;16.13;77.37;99553.19;7359272;19;20014;-57
2023/08/01 06:57:18;;;;;;;0.10;0.10;;;;;;;16.16;77.46;99563.50;7354509;19;20650;-56
2023/08/01 06:59:43;;;;;;;0.10;0.10;;;;;;;16.17;77.07;99559.97;7357483;19;20013;-56
2023/08/01 07:02:09;;;;;;;0.10;0.10;;;;;;;16.18;76.81;99553.75;7355063;19;20022;-57
2023/08/01 07:04:34;;;;;;;0.00;0.00;;;;;;;16.19;76.57;99544.88;7352565;19;20346;-55
2023/08/01 07:07:00;;;;;;;0.00;0.00;;;;;;;16.20;76.65;99546.56;7355368;19;20010;-56
2023/08/01 07:09:25;;;;;;;0.10;0.10;;;;;;;16.20;77.02;99551.84;7358454;19;20050;-57
2023/08/01 07:11:51;;;;;;;0.00;0.00;;;;;;;15.97;76.70;99510.34;7353902;19;20062;-57
2023/08/01 07:14:16;;;;;;;0.10;0.10;;;;;;;16.26;77.53;99543.53;7351004;19;20006;-57
2023/08/01 07:16:41;;;;;;;0.10;0.10;;;;;;;16.29;77.08;99560.94;7357018;19;20010;-57
2023/08/01 07:19:07;;;;;;;0.00;0.00;;;;;;;16.31;76.93;99548.50;7357234;19;20616;-55
2023/08/01 07:21:32;;;;;;;0.10;0.10;;;;;;;16.32;76.91;99555.47;7355521;19;20034;-54
2023/08/01 07:23:58;;;;;;;0.10;0.10;;;;;;;16.35;76.87;99561.38;7357328;19;20011;-56
2023/08/01 07:26:23;;;;;;;0.10;0.10;;;;;;;16.37;76.64;99556.00;7353388;19;20037;-57
2023/08/01 07:28:49;;;;;;;0.10;0.10;;;;;;;16.40;77.00;99555.81;7356644;19;20047;-57
2023/08/01 07:31:14;;;;;;;0.10;0.10;;;;;;;16.42;76.28;99561.00;7358775;19;20040;-57
2023/08/01 07:33:39;;;;;;;0.10;0.10;;;;;;;16.44;76.85;99567.03;7354332;19;20615;-58
2023/08/01 07:36:05;;;;;;;0.00;0.00;;;;;;;16.49;76.68;99557.88;7357752;19;20474;-55
2023/08/01 07:38:31;;;;;;;0.00;0.00;;;;;;;16.53;76.80;99569.06;7353905;19;20014;-57
2023/08/01 07:41:01;;;;;;;0.00;0.00;;;;;;;16.58;77.00;99575.72;7357621;19;20006;-56
2023/08/01 07:43:27;;;;;;;0.10;0.10;;;;;;;16.60;76.66;99573.81;7355086;19;20040;-55
2023/08/01 07:45:56;;;;;;;0.00;0.00;;;;;;;16.66;76.88;99567.28;7359390;19;20018;-57
2023/08/01 07:48:21;;;;;;;0.10;0.10;;;;;;;16.73;77.02;99576.53;7353508;19;20010;-57
2023/08/01 07:50:46;;;;;;;0.10;0.10;;;;;;;16.79;76.60;99570.84;7355249;19;20497;-56
2023/08/01 07:53:12;;;;;;;0.10;0.10;;;;;;;16.91;77.32;99578.88;7352575;19;20018;-56
2023/08/01 07:55:37;;;;;;;0.10;0.10;;;;;;;16.99;77.06;99579.22;7355261;19;20022;-55
2023/08/01 07:58:03;;;;;;;0.10;0.10;;;;;;;17.08;77.02;99565.41;7352266;19;20014;-56
2023/08/01 08:00:28;;;;;;;0.10;0.10;;;;;;;17.15;76.83;99577.25;7355937;19;20006;-55
2023/08/01 08:02:54;;;;;;;0.10;0.10;;;;;;;17.19;75.66;99573.47;7355656;19;20018;-57
2023/08/01 08:05:19;;;;;;;0.08;0.08;;;;;;;17.24;76.48;99576.63;7355027;19;20007;-56
2023/08/01 08:07:45;;;;;;;0.00;0.00;;;;;;;17.27;75.75;99557.94;7356036;19;20595;-57
2023/08/01 08:10:10;;;;;;;0.10;0.10;;;;;;;17.33;75.72;99570.69;7356764;19;20006;-56
2023/08/01 08:12:36;;;;;;;0.00;0.00;;;;;;;17.36;75.17;99567.84;7350662;19;20021;-57
2023/08/01 08:15:01;;;;;;;0.10;0.10;;;;;;;17.31;74.91;99562.06;7353178;19;20015;-57
2023/08/01 08:17:27;;;;;;;0.10;0.10;;;;;;;17.44;75.34;99566.50;7355824;19;20019;-56
2023/08/01 08:19:52;;;;;;;0.00;0.00;;;;;;;17.47;74.77;99582.09;7352498;19;20041;-57
2023/08/01 08:22:17;;;;;;;0.10;0.10;;;;;;;17.49;75.24;99569.66;7345078;19;20022;-58
2023/08/01 08:24:43;;;;;;;0.10;0.10;;;;;;;17.54;74.72;99572.84;7351637;19;20075;-56
2023/08/01 08:27:08;;;;;;;0.00;0.00;;;;;;;17.57;74.71;99572.59;7350687;19;20756;-57
2023/08/01 08:29:34;;;;;;;0.10;0.10;;;;;;;17.59;74.13;99573.34;7351241;19;20085;-56
2023/08/01 08:31:59;;;;;;;0.10;0.10;;;;;;;17.58;74.46;99572.47;7353675;19;20015;-58
2023/08/01 08:34:24;;;;;;;0.10;0.10;;;;;;;17.63;74.53;99566.88;7350199;19;20021;-57
2023/08/01 08:36:50;;;;;;;0.00;0.00;;;;;;;17.59;74.77;99549.59;7355257;19;20022;-57
2023/08/01 08:39:16;;;;;;;0.10;0.10;;;;;;;17.74;74.46;99548.56;7352338;19;20022;-57
2023/08/01 08:41:52;;;;;;;0.10;0.10;;;;;;;17.83;74.49;99539.94;7353514;19;20023;-56
2023/08/01 08:44:20;;;;;;;0.10;0.10;;;;;;;17.84;73.70;99552.22;7343738;19;20014;-57
2023/08/01 08:46:50;;;;;;;0.00;0.00;;;;;;;17.93;74.67;99547.22;7355516;19;20447;-57
2023/08/01 08:49:17;;;;;;;0.00;0.00;;;;;;;17.89;74.31;99531.63;7351716;19;20031;-57
2023/08/01 08:51:45;;;;;;;0.10;0.10;;;;;;;18.03;74.14;99535.03;7352261;19;20609;-56
2023/08/01 08:54:11;;;;;;;0.10;0.10;;;;;;;18.03;73.23;99532.41;7351021;19;21059;-57
2023/08/01 08:56:38;;;;;;;0.10;0.10;;;;;;;18.09;73.27;99521.38;7356117;19;20010;-57
2023/08/01 08:59:04;;;;;;;0.10;0.10;;;;;;;18.14;73.74;99530.66;7352779;19;20011;-58
2023/08/01 09:01:31;;;;;;;0.10;0.10;;;;;;;18.22;73.45;99538.03;7353870;19;20022;-57
2023/08/01 09:03:57;;;;;;;0.10;0.10;;;;;;;18.31;73.42;99537.38;7353455;19;20558;-56
2023/08/01 09:06:29;;;;;;;0.10;0.10;;;;;;;18.44;73.36;99536.47;7351416;19;20006;-57
2023/08/01 09:09:14;;;;;;;0.10;0.10;;;;;;;18.54;74.08;99537.47;7353874;19;20039;-58
2023/08/01 09:11:43;;;;;;;0.10;0.10;;;;;;;18.60;73.16;99537.00;7354428;19;20630;-55
2023/08/01 09:14:09;;;;;;;0.10;0.10;;;;;;;18.65;72.15;99529.56;7352817;19;20063;-57
2023/08/01 09:16:35;;;;;;;0.10;0.10;;;;;;;18.74;72.40;99525.44;7353693;19;20613;-57
2023/08/01 09:19:01;;;;;;;0.10;0.10;;;;;;;18.85;72.50;99514.88;7354998;19;20007;-57
2023/08/01 09:21:26;;;;;;;0.10;0.10;;;;;;;19.00;72.43;99523.47;7350568;19;20002;-58
2023/08/01 09:23:52;;;;;;;0.00;0.00;;;;;;;19.10;71.65;99524.44;7354231;19;20010;-57
2023/08/01 09:26:19;;;;;;;0.10;0.10;;;;;;;19.16;71.38;99518.69;7349767;19;20006;-57
2023/08/01 09:28:56;;;;;;;0.10;0.10;;;;;;;19.40;72.94;99519.41;7351666;19;20010;-56
2023/08/01 09:31:33;;;;;;;0.10;0.10;;;;;;;19.59;74.11;99523.28;7352329;19;20503;-58
2023/08/01 09:33:59;;;;;;;0.10;0.10;;;;;;;19.74;70.98;99524.75;7348178;19;20019;-57
2023/08/01 09:36:25;;;;;;;0.10;0.10;;;;;;;19.96;70.13;99535.31;7343685;19;20474;-57
2023/08/01 09:38:51;;;;;;;0.10;0.10;;;;;;;20.17;70.55;99532.75;7354585;19;20098;-57
2023/08/01 09:41:20;;;;;;;0.10;0.10;;;;;;;20.41;71.19;99535.19;7348317;19;21193;-58
2023/08/01 09:43:47;;;;;;;0.10;0.10;;;;;;;20.53;69.30;99533.41;7347777;19;20011;-55
2023/08/01 09:46:13;;;;;;;0.08;0.08;;;;;;;20.65;69.03;99542.13;7349252;19;20011;-55
2023/08/01 09:48:39;;;;;;;0.10;0.10;;;;;;;20.68;68.14;99520.66;7358889;19;20404;-56
2023/08/01 09:51:05;;;;;;;0.10;0.10;;;;;;;20.84;68.42;99537.00;7353756;19;20006;-58
2023/08/01 09:53:31;;;;;;;0.10;0.10;;;;;;;20.91;68.22;99532.84;7359069;19;20044;-57
2023/08/01 09:56:01;;;;;;;0.10;0.10;;;;;;;21.04;68.36;99537.97;7357777;19;20018;-56
2023/08/01 09:58:32;;;;;;;0.08;0.08;;;;;;;21.21;69.09;99544.47;7357988;19;20006;-57
2023/08/01 10:00:59;;;;;;;0.10;0.10;;;;;;;21.29;67.35;99542.03;7358777;19;20077;-57
2023/08/01 10:03:27;;;;;;;0.10;0.10;;;;;;;21.41;67.46;99535.69;7359356;19;20006;-57
2023/08/01 10:05:54;;;;;;;0.10;0.10;;;;;;;21.44;67.33;99535.44;7360675;19;20053;-58
2023/08/01 10:08:21;;;;;;;0.10;0.10;;;;;;;21.52;67.31;99526.78;7360241;19;20125;-57
2023/08/01 10:10:47;;;;;;;0.10;0.10;;;;;;;21.64;68.10;99531.00;7357876;19;20107;-54
2023/08/01 10:13:13;;;;;;;0.10;0.10;;;;;;;21.80;67.41;99519.06;7360845;19;20561;-57
2023/08/01 10:15:39;;;;;;;0.00;0.00;;;;;;;22.04;66.44;99522.19;7360984;19;20003;-58
2023/08/01 10:18:04;;;;;;;0.10;0.10;;;;;;;22.21;66.20;99528.72;7358963;19;20009;-55
2023/08/01 10:20:31;;;;;;;0.10;0.10;;;;;;;22.34;65.65;99526.59;7361065;19;20014;-57
2023/08/01 10:22:57;;;;;;;0.10;0.10;;;;;;;22.45;66.21;99531.78;7335426;19;20325;-57
2023/08/01 10:25:23;;;;;;;0.10;0.10;;;;;;;22.58;65.70;99541.31;7356589;19;20014;-58
2023/08/01 10:28:05;;;;;;;0.10;0.10;;;;;;;22.77;68.59;99530.69;7356294;19;20049;-57
2023/08/01 10:30:31;;;;;;;0.10;0.10;;;;;;;22.76;64.73;99537.00;7360265;19;20111;-59
2023/08/01 10:32:57;;;;;;;0.10;0.10;;;;;;;22.80;63.04;99530.38;7352693;19;20876;-56
2023/08/01 10:35:32;;;;;;;0.10;0.10;;;;;;;22.91;67.80;99527.63;7359998;19;20041;-56
2023/08/01 10:38:04;;;;;;;0.10;0.10;;;;;;;22.80;67.06;99503.75;7357367;19;20014;-58
2023/08/01 10:40:42;;;;;;;0.10;0.10;;;;;;;22.90;64.65;99520.59;7358723;19;20010;-57
2023/08/01 10:43:21;;;;;;;0.10;0.10;;;;;;;23.01;68.14;99527.59;7358921;19;20006;-57
2023/08/01 10:45:47;;;;;;;0.00;0.00;;;;;;;22.98;65.18;99528.72;7335805;19;20773;-58
2023/08/01 10:48:13;;;;;;;0.10;0.10;;;;;;;23.03;65.12;99523.81;7353589;19;20021;-57
2023/08/01 10:50:39;;;;;;;0.10;0.10;;;;;;;23.12;64.07;99529.28;7354551;19;20479;-57
2023/08/01 10:53:07;;;;;;;0.00;0.00;;;;;;;23.22;63.56;99527.41;7360291;19;20039;-58
2023/08/01 10:55:40;;;;;;;0.08;0.08;;;;;;;23.33;66.61;99526.41;7354820;19;20021;-57
2023/08/01 10:58:05;;;;;;;0.10;0.10;;;;;;;23.25;62.79;99535.94;7358895;19;20082;-58
2023/08/01 11:00:30;;;;;;;0.10;0.10;;;;;;;23.25;61.27;99535.94;7358409;19;20938;-56
2023/08/01 11:02:56;;;;;;;0.10;0.10;;;;;;;23.22;62.61;99535.41;7360415;19;20014;-57
2023/08/01 11:05:23;;;;;;;0.10;0.10;;;;;;;23.15;62.02;99537.78;7354992;19;20014;-57
2023/08/01 11:07:56;;;;;;;0.10;0.10;;;;;;;23.13;63.00;99534.44;7358574;19;20478;-57
2023/08/01 11:10:22;;;;;;;0.03;0.03;;;;;;;23.00;61.38;99536.56;7354581;19;20028;-56
2023/08/01 11:12:48;;;;;;;0.10;0.10;;;;;;;22.95;61.35;99549.47;7361362;19;20010;-57
2023/08/01 11:15:14;;;;;;;0.10;0.10;;;;;;;22.89;63.03;99545.53;7352283;19;20564;-58
2023/08/01 11:17:46;;;;;;;0.10;0.10;;;;;;;22.83;61.30;99540.75;7361492;19;20021;-58
2023/08/01 11:20:12;;;;;;;0.10;0.10;;;;;;;22.72;60.78;99527.59;7359123;19;20103;-58
2023/08/01 11:22:50;;;;;;;0.10;0.10;;;;;;;22.80;63.90;99528.56;7358384;19;20027;-57
2023/08/01 11:25:15;;;;;;;0.08;0.08;;;;;;;22.71;61.67;99531.25;7358109;19;20053;-56
2023/08/01 11:27:40;;;;;;;0.10;0.10;;;;;;;22.70;61.80;99534.88;7359202;19;20740;-58
2023/08/01 11:30:07;;;;;;;0.10;0.10;;;;;;;22.69;61.58;99531.38;7356716;19;20050;-58